Time;durP1;ratioP1;P1;durP2;ratioP2;P2;SDS_P1;SDS_P2;PMS_P1;PMS_P2;Temp;Humidity;BMP_temperature;BMP_pressure;BME280_temperature;BME280_humidity;BME280_pressure;Samples;Min_cycle;Max_cycle;Signal;HPM_P1;HPM_P2
2023/09/08 00:01:25;;;;;;;10.75;8.65;;;19.90;68.00;;;;;;5109238;28;20043;-70
2023/09/08 00:03:51;;;;;;;13.00;8.55;;;19.90;68.20;;;;;;5091466;28;20102;-70
2023/09/08 00:06:16;;;;;;;10.10;8.13;;;19.80;68.40;;;;;;5073524;28;20051;-70
2023/09/08 00:08:43;;;;;;;8.98;8.07;;;19.80;68.50;;;;;;5073234;28;20094;-70
2023/09/08 00:11:09;;;;;;;8.38;7.57;;;19.80;68.60;;;;;;5104551;28;20044;-70
2023/09/08 00:13:34;;;;;;;8.82;7.95;;;19.80;68.70;;;;;;5111288;28;20474;-70
2023/09/08 00:16:00;;;;;;;10.18;9.07;;;19.70;68.70;;;;;;5093061;28;20040;-70
2023/09/08 00:18:26;;;;;;;8.95;8.00;;;19.70;68.90;;;;;;5094437;28;20446;-70
2023/09/08 00:20:51;;;;;;;10.90;8.32;;;19.70;68.90;;;;;;5106133;28;20052;-70
2023/09/08 00:23:17;;;;;;;11.40;8.50;;;19.60;69.00;;;;;;5113014;28;20031;-70
2023/09/08 00:25:42;;;;;;;8.40;7.45;;;19.60;69.20;;;;;;5102976;28;20047;-70
2023/09/08 00:28:08;;;;;;;9.00;8.02;;;19.60;69.20;;;;;;5093374;28;20052;-70
2023/09/08 00:30:34;;;;;;;9.88;8.20;;;19.60;69.40;;;;;;5094328;28;20480;-70
2023/09/08 00:32:59;;;;;;;9.95;8.40;;;19.50;69.40;;;;;;5077647;28;20044;-70
2023/09/08 00:35:25;;;;;;;9.52;8.63;;;19.50;69.40;;;;;;5075780;28;20032;-70
2023/09/08 00:37:51;;;;;;;8.75;7.88;;;19.50;69.50;;;;;;5093248;28;20044;-69
2023/09/08 00:40:17;;;;;;;8.75;7.85;;;19.50;69.50;;;;;;5101838;28;20074;-70
2023/09/08 00:42:42;;;;;;;10.00;7.95;;;19.50;69.50;;;;;;5113428;28;20048;-70
2023/09/08 00:45:08;;;;;;;11.57;8.68;;;19.40;69.60;;;;;;5104153;28;20387;-70
2023/09/08 00:47:35;;;;;;;9.45;7.97;;;19.40;69.60;;;;;;5092966;28;20048;-70
2023/09/08 00:50:04;;;;;;;9.60;8.30;;;19.40;69.70;;;;;;5093390;28;20044;-70
2023/09/08 00:52:32;;;;;;;11.20;8.70;;;19.40;69.80;;;;;;5093032;28;20120;-70
2023/09/08 00:54:59;;;;;;;7.85;7.05;;;19.30;69.70;;;;;;5113525;28;20039;-70
2023/09/08 00:57:25;;;;;;;9.50;8.00;;;19.30;69.80;;;;;;5113152;28;20478;-70
2023/09/08 00:59:51;;;;;;;9.85;8.55;;;19.30;69.80;;;;;;5105475;28;20512;-70
2023/09/08 01:02:16;;;;;;;10.88;9.02;;;19.30;69.80;;;;;;5091218;28;20048;-70
2023/09/08 01:04:43;;;;;;;9.23;8.40;;;19.30;69.90;;;;;;5090952;28;20113;-70
2023/09/08 01:07:11;;;;;;;9.45;8.52;;;19.20;69.90;;;;;;5092676;28;20036;-70
2023/09/08 01:09:37;;;;;;;9.73;8.75;;;19.20;70.00;;;;;;5096341;28;20055;-70
2023/09/08 01:12:07;;;;;;;10.48;9.38;;;19.20;70.50;;;;;;5104326;28;20097;-70
2023/09/08 01:14:33;;;;;;;10.35;8.75;;;19.20;70.20;;;;;;5092624;28;20036;-70
2023/09/08 01:16:58;;;;;;;8.05;7.25;;;19.10;70.10;;;;;;5092595;28;20102;-70
2023/09/08 01:19:24;;;;;;;9.40;7.60;;;19.20;70.20;;;;;;5093655;28;20123;-70
2023/09/08 01:22:15;;;;;;;8.07;7.28;;;19.20;70.20;;;;;;5092830;28;20376;-71
2023/09/08 01:25:05;;;;;;;7.85;7.07;;;19.20;69.70;;;;;;5092644;28;20445;-70
2023/09/08 01:27:34;;;;;;;8.35;6.68;;;19.20;70.00;;;;;;5090869;28;20078;-70
2023/09/08 01:30:01;;;;;;;8.75;7.85;;;19.20;69.90;;;;;;5101956;28;20070;-70
2023/09/08 01:32:29;;;;;;;8.30;7.50;;;19.20;69.80;;;;;;5096057;28;20456;-70
2023/09/08 01:34:56;;;;;;;10.15;7.50;;;19.20;70.20;;;;;;5112790;28;20180;-70
2023/09/08 01:37:23;;;;;;;9.27;6.88;;;19.20;69.70;;;;;;5112492;28;20052;-70
2023/09/08 01:39:49;;;;;;;8.20;6.93;;;19.20;69.70;;;;;;5105141;28;20046;-70
2023/09/08 01:42:14;;;;;;;7.88;7.15;;;19.20;69.60;;;;;;5112369;28;20036;-70
2023/09/08 01:44:40;;;;;;;8.50;7.50;;;19.20;69.40;;;;;;5101825;28;20044;-70
2023/09/08 01:47:06;;;;;;;8.30;6.47;;;19.20;69.30;;;;;;5091243;28;20040;-70
2023/09/08 01:49:31;;;;;;;7.75;6.95;;;19.30;69.20;;;;;;5099252;28;20039;-70
2023/09/08 01:51:57;;;;;;;7.05;6.35;;;19.30;69.00;;;;;;5095248;28;20040;-70
2023/09/08 01:54:23;;;;;;;8.93;7.50;;;19.30;68.80;;;;;;5085774;28;20035;-70
2023/09/08 01:56:50;;;;;;;7.13;6.47;;;19.30;68.60;;;;;;5112926;28;20108;-70
2023/09/08 01:59:15;;;;;;;7.68;6.80;;;19.20;68.30;;;;;;5110671;28;20035;-70
2023/09/08 02:01:41;;;;;;;9.32;7.20;;;19.20;68.20;;;;;;5071709;28;20643;-70
2023/09/08 02:04:07;;;;;;;7.03;6.30;;;19.30;68.20;;;;;;5098776;28;20050;-70
2023/09/08 02:06:32;;;;;;;7.40;6.70;;;19.20;68.10;;;;;;5095629;28;20044;-70
2023/09/08 02:08:58;;;;;;;7.60;6.85;;;19.20;68.10;;;;;;5091676;28;20048;-70
2023/09/08 02:11:24;;;;;;;8.02;7.15;;;19.30;68.20;;;;;;5091732;28;20390;-70
2023/09/08 02:13:49;;;;;;;7.70;6.95;;;19.20;68.10;;;;;;5093615;28;20048;-70
2023/09/08 02:16:16;;;;;;;6.90;6.20;;;19.30;68.20;;;;;;5075532;28;20041;-70
2023/09/08 02:18:43;;;;;;;6.95;6.25;;;19.20;68.00;;;;;;5105207;28;20472;-70
2023/09/08 02:21:09;;;;;;;8.05;5.70;;;19.30;68.10;;;;;;5072045;28;20040;-70
2023/09/08 02:23:34;;;;;;;7.30;6.60;;;19.30;68.00;;;;;;5074248;28;20041;-70
2023/09/08 02:26:00;;;;;;;7.63;6.55;;;19.30;68.00;;;;;;5111207;28;20047;-70
2023/09/08 02:28:26;;;;;;;7.30;6.65;;;19.30;68.10;;;;;;5111864;28;20055;-70
2023/09/08 02:30:52;;;;;;;6.95;6.25;;;19.30;68.00;;;;;;5111947;28;20066;-70
2023/09/08 02:33:17;;;;;;;8.55;6.95;;;19.30;67.90;;;;;;5101087;28;20048;-70
2023/09/08 02:35:43;;;;;;;9.63;8.32;;;19.30;68.00;;;;;;5108492;28;20604;-70
2023/09/08 02:38:09;;;;;;;10.38;8.73;;;19.30;68.00;;;;;;5111980;28;20035;-70
2023/09/08 02:40:35;;;;;;;10.00;9.00;;;19.20;68.00;;;;;;5111535;28;20552;-70
2023/09/08 02:43:01;;;;;;;11.35;10.25;;;19.20;68.30;;;;;;5111771;28;20062;-70
2023/09/08 02:45:27;;;;;;;10.60;9.50;;;19.20;68.70;;;;;;5102661;28;20059;-70
2023/09/08 02:47:53;;;;;;;8.75;7.85;;;19.20;68.90;;;;;;5098706;28;20545;-70
2023/09/08 02:50:19;;;;;;;9.48;7.68;;;19.10;69.50;;;;;;5091354;28;20093;-70
2023/09/08 02:52:45;;;;;;;8.85;7.95;;;19.10;69.10;;;;;;5091557;28;20036;-70
2023/09/08 02:55:11;;;;;;;8.32;7.53;;;19.00;69.00;;;;;;5091519;28;20501;-70
2023/09/08 02:57:38;;;;;;;9.95;8.35;;;19.00;69.10;;;;;;5091841;28;20050;-70
2023/09/08 03:00:04;;;;;;;8.55;6.50;;;19.00;69.00;;;;;;5094736;28;20044;-70
2023/09/08 03:02:30;;;;;;;8.18;6.68;;;19.00;68.80;;;;;;5095297;28;20109;-70
2023/09/08 03:04:56;;;;;;;8.45;7.45;;;19.00;68.70;;;;;;5094863;28;20036;-70
2023/09/08 03:07:22;;;;;;;8.18;6.82;;;19.00;68.80;;;;;;5094969;28;20047;-70
2023/09/08 03:09:48;;;;;;;10.85;9.65;;;19.00;68.80;;;;;;5096175;28;20048;-70
2023/09/08 03:12:14;;;;;;;10.55;9.52;;;19.00;68.90;;;;;;5082153;28;20058;-70
2023/09/08 03:14:39;;;;;;;9.15;7.82;;;19.00;69.00;;;;;;5104234;28;20052;-70
2023/09/08 03:17:05;;;;;;;9.45;8.55;;;19.00;68.90;;;;;;5095073;28;20051;-70
2023/09/08 03:19:31;;;;;;;10.43;9.30;;;18.90;68.80;;;;;;5096163;28;20527;-70
2023/09/08 03:21:57;;;;;;;10.05;9.07;;;18.90;68.90;;;;;;5094819;28;20040;-70
2023/09/08 03:24:22;;;;;;;12.15;10.82;;;18.90;69.00;;;;;;5102822;28;20114;-70
2023/09/08 03:26:48;;;;;;;11.88;10.70;;;18.80;69.20;;;;;;5115222;28;20126;-70
2023/09/08 03:29:14;;;;;;;12.85;11.40;;;18.70;69.80;;;;;;5105825;28;20044;-70
2023/09/08 03:31:39;;;;;;;12.63;11.40;;;18.60;70.30;;;;;;5077664;28;20545;-70
2023/09/08 03:34:05;;;;;;;13.10;11.30;;;18.50;70.70;;;;;;5099928;28;20042;-70
2023/09/08 03:36:35;;;;;;;13.00;11.57;;;18.40;71.10;;;;;;5114970;28;20136;-70
2023/09/08 03:39:02;;;;;;;15.05;12.70;;;18.40;71.50;;;;;;5114760;28;20051;-70
2023/09/08 03:41:28;;;;;;;13.13;11.77;;;18.30;71.80;;;;;;5114795;28;20035;-70
2023/09/08 03:43:53;;;;;;;11.80;10.50;;;18.20;72.10;;;;;;5088757;28;20039;-70
2023/09/08 03:46:19;;;;;;;9.85;8.85;;;18.10;72.30;;;;;;5097562;28;20138;-70
2023/09/08 03:48:45;;;;;;;10.98;9.23;;;18.10;72.40;;;;;;5114538;28;20039;-70
2023/09/08 03:51:10;;;;;;;10.98;9.88;;;18.10;72.40;;;;;;5114583;28;20031;-70
2023/09/08 03:53:36;;;;;;;10.38;9.38;;;18.10;72.50;;;;;;5112864;28;20047;-70
2023/09/08 03:56:02;;;;;;;13.45;10.88;;;18.10;72.50;;;;;;5094108;28;20040;-70
2023/09/08 03:58:28;;;;;;;10.10;9.00;;;18.00;72.40;;;;;;5093203;28;20036;-70
2023/09/08 04:00:54;;;;;;;10.93;9.80;;;18.00;72.30;;;;;;5094088;28;20048;-70
2023/09/08 04:03:20;;;;;;;12.63;11.32;;;18.10;72.30;;;;;;5095579;28;20089;-70
2023/09/08 04:05:45;;;;;;;11.20;10.00;;;18.00;72.20;;;;;;5090895;28;20048;-70
2023/09/08 04:08:11;;;;;;;10.80;9.70;;;18.00;72.10;;;;;;5073343;28;20055;-70
2023/09/08 04:10:37;;;;;;;11.43;10.30;;;18.00;72.10;;;;;;5072839;28;20051;-70
2023/09/08 04:13:03;;;;;;;10.68;9.63;;;18.00;72.20;;;;;;5077953;28;20526;-70
2023/09/08 04:15:29;;;;;;;12.15;10.80;;;18.00;72.10;;;;;;5097070;28;20040;-70
2023/09/08 04:17:55;;;;;;;12.73;11.52;;;18.00;72.30;;;;;;5092948;28;20487;-70
2023/09/08 04:20:21;;;;;;;11.98;10.40;;;17.90;72.30;;;;;;5114277;28;20044;-70
2023/09/08 04:22:47;;;;;;;12.73;11.07;;;17.90;72.30;;;;;;5097068;28;20380;-70
2023/09/08 04:25:13;;;;;;;11.32;10.23;;;17.90;72.40;;;;;;5096215;28;20046;-70
2023/09/08 04:27:39;;;;;;;13.02;11.80;;;17.80;72.50;;;;;;5092643;28;20040;-70
2023/09/08 04:30:06;;;;;;;10.88;9.82;;;17.80;72.60;;;;;;5093496;28;20051;-70
2023/09/08 04:32:32;;;;;;;12.32;11.13;;;17.80;72.70;;;;;;5093341;28;20058;-70
2023/09/08 04:34:57;;;;;;;14.75;11.77;;;17.80;72.80;;;;;;5108182;28;20061;-70
2023/09/08 04:37:23;;;;;;;11.13;9.45;;;17.80;72.90;;;;;;5113551;28;20048;-69
2023/09/08 04:39:49;;;;;;;10.98;9.93;;;17.80;73.00;;;;;;5098576;28;20043;-70
2023/09/08 04:42:14;;;;;;;11.05;10.00;;;17.70;73.00;;;;;;5093419;28;20052;-70
2023/09/08 04:44:40;;;;;;;13.30;11.15;;;17.70;73.00;;;;;;5105017;28;20039;-70
2023/09/08 04:47:06;;;;;;;11.43;9.30;;;17.70;73.10;;;;;;5113385;28;20399;-70
2023/09/08 04:49:31;;;;;;;9.70;8.73;;;17.70;73.00;;;;;;5113480;28;20119;-70
2023/09/08 04:51:57;;;;;;;9.60;8.60;;;17.70;72.90;;;;;;5113446;28;20035;-70
2023/09/08 04:54:26;;;;;;;10.60;9.10;;;17.70;72.80;;;;;;5105723;28;20101;-70
2023/09/08 04:56:52;;;;;;;10.63;9.63;;;17.70;72.80;;;;;;5096176;28;20060;-70
2023/09/08 04:59:18;;;;;;;10.35;7.40;;;17.80;72.80;;;;;;5093072;28;20050;-70
2023/09/08 05:01:43;;;;;;;8.43;7.63;;;17.80;72.60;;;;;;5092383;28;20097;-70
2023/09/08 05:04:10;;;;;;;8.82;7.93;;;17.80;72.50;;;;;;5092994;28;20480;-70
2023/09/08 05:06:36;;;;;;;8.85;7.65;;;17.80;72.30;;;;;;5092692;28;20051;-70
2023/09/08 05:09:01;;;;;;;8.82;7.97;;;17.80;72.20;;;;;;5092485;28;20056;-69
2023/09/08 05:11:27;;;;;;;11.43;9.07;;;17.80;72.00;;;;;;5092870;28;20391;-70
2023/09/08 05:13:53;;;;;;;10.50;9.00;;;17.80;71.90;;;;;;5094905;28;20473;-70
2023/09/08 05:16:25;;;;;;;9.32;8.43;;;17.90;71.90;;;;;;5102820;28;20501;-70
2023/09/08 05:18:51;;;;;;;8.70;7.80;;;17.90;71.70;;;;;;5092593;28;20047;-70
2023/09/08 05:21:17;;;;;;;8.38;7.57;;;17.90;71.50;;;;;;5081802;28;20044;-70
2023/09/08 05:23:43;;;;;;;8.68;7.85;;;17.90;71.50;;;;;;5072162;28;20522;-70
2023/09/08 05:26:09;;;;;;;12.38;9.68;;;17.90;71.30;;;;;;5104976;28;20039;-70
2023/09/08 05:28:34;;;;;;;10.00;8.95;;;17.90;71.20;;;;;;5112582;28;20432;-70
2023/09/08 05:31:00;;;;;;;13.10;10.43;;;18.00;71.10;;;;;;5112698;28;20047;-70
2023/09/08 05:33:25;;;;;;;11.38;10.20;;;18.00;71.20;;;;;;5100711;28;20090;-70
2023/09/08 05:35:51;;;;;;;10.45;9.38;;;18.00;71.40;;;;;;5101894;28;20450;-70
2023/09/08 05:38:17;;;;;;;11.05;9.85;;;18.00;71.50;;;;;;5103885;28;20035;-70
2023/09/08 05:40:43;;;;;;;11.00;9.88;;;18.10;71.40;;;;;;5103414;28;20047;-70
2023/09/08 05:43:08;;;;;;;11.52;10.07;;;18.10;71.10;;;;;;5092156;28;20044;-69
2023/09/08 05:45:34;;;;;;;13.32;11.93;;;18.20;71.30;;;;;;5086361;28;20043;-70
2023/09/08 05:48:01;;;;;;;13.40;12.10;;;18.20;71.50;;;;;;5098438;28;20065;-70
2023/09/08 05:50:27;;;;;;;12.32;11.02;;;18.20;71.80;;;;;;5100320;28;20039;-70
2023/09/08 05:52:52;;;;;;;14.63;13.13;;;18.10;72.10;;;;;;5103195;28;20044;-70
2023/09/08 05:55:18;;;;;;;14.55;12.55;;;18.10;72.40;;;;;;5092176;28;20035;-70
2023/09/08 05:57:44;;;;;;;13.43;12.15;;;18.10;72.70;;;;;;5091783;28;20562;-70
2023/09/08 06:00:10;;;;;;;13.30;11.68;;;18.00;72.90;;;;;;5091370;28;20052;-70
2023/09/08 06:02:36;;;;;;;13.60;12.25;;;18.00;73.20;;;;;;5091910;28;20498;-70
2023/09/08 06:05:03;;;;;;;13.55;12.15;;;18.00;73.50;;;;;;5093046;28;20044;-70
2023/09/08 06:07:28;;;;;;;13.32;11.93;;;18.00;74.10;;;;;;5089979;28;20040;-70
2023/09/08 06:09:54;;;;;;;14.25;11.77;;;18.00;74.70;;;;;;5085727;28;20139;-69
2023/09/08 06:12:20;;;;;;;11.55;10.35;;;18.20;74.90;;;;;;5087657;28;20062;-70
2023/09/08 06:14:45;;;;;;;11.10;9.82;;;18.40;74.60;;;;;;5086658;28;20040;-70
2023/09/08 06:17:11;;;;;;;10.23;9.00;;;18.70;74.30;;;;;;5088295;28;20543;-71
2023/09/08 06:19:37;;;;;;;11.20;9.98;;;19.00;73.50;;;;;;5085628;28;20403;-70
2023/09/08 06:22:03;;;;;;;12.43;10.00;;;19.40;72.70;;;;;;5085878;28;20051;-70
2023/09/08 06:24:29;;;;;;;11.93;10.70;;;19.60;71.90;;;;;;5086257;28;20036;-70
2023/09/08 06:26:55;;;;;;;10.95;9.93;;;19.80;71.00;;;;;;5085776;28;20341;-70
2023/09/08 06:29:20;;;;;;;9.80;8.70;;;20.00;70.30;;;;;;5086259;28;20040;-70
2023/09/08 06:31:46;;;;;;;11.23;9.20;;;20.10;69.70;;;;;;5087486;28;20036;-70
2023/09/08 06:34:12;;;;;;;9.80;8.80;;;20.30;69.30;;;;;;5089120;28;20036;-70
2023/09/08 06:36:37;;;;;;;9.98;9.00;;;20.50;68.70;;;;;;5090289;28;20487;-70
2023/09/08 06:39:03;;;;;;;12.05;10.73;;;20.70;68.10;;;;;;5090212;28;20044;-70
2023/09/08 06:41:29;;;;;;;10.43;9.38;;;21.00;67.70;;;;;;5090572;28;20040;-70
2023/09/08 06:43:55;;;;;;;11.27;9.02;;;21.10;66.80;;;;;;5106595;28;20043;-70
2023/09/08 06:46:21;;;;;;;10.98;9.95;;;21.20;66.40;;;;;;5090133;28;20113;-70
2023/09/08 06:48:46;;;;;;;9.55;8.65;;;21.30;66.20;;;;;;5089614;28;20040;-70
2023/09/08 06:51:12;;;;;;;9.27;8.43;;;21.30;66.10;;;;;;5089880;28;20161;-70
2023/09/08 06:53:38;;;;;;;9.98;8.88;;;21.30;66.00;;;;;;5088898;28;20043;-70
2023/09/08 06:56:04;;;;;;;9.02;8.13;;;21.30;66.00;;;;;;5090907;28;20082;-70
2023/09/08 06:58:29;;;;;;;9.52;8.55;;;21.40;65.80;;;;;;5090368;28;20052;-70
2023/09/08 07:00:55;;;;;;;10.68;8.77;;;21.40;65.60;;;;;;5090191;28;20048;-70
2023/09/08 07:03:22;;;;;;;10.48;9.48;;;21.50;66.30;;;;;;5089851;28;20244;-70
2023/09/08 07:05:49;;;;;;;10.23;9.18;;;21.50;65.40;;;;;;5090825;28;20044;-70
2023/09/08 07:08:15;;;;;;;9.50;8.30;;;21.50;65.30;;;;;;5088648;28;20062;-70
2023/09/08 07:10:40;;;;;;;8.63;7.72;;;21.50;65.30;;;;;;5090236;28;20511;-70
2023/09/08 07:13:06;;;;;;;9.13;8.25;;;21.60;65.50;;;;;;5090389;28;20483;-70
2023/09/08 07:15:32;;;;;;;9.70;8.18;;;21.60;65.50;;;;;;5090383;28;20169;-70
2023/09/08 07:17:57;;;;;;;10.73;8.55;;;21.60;65.30;;;;;;5090324;28;20052;-70
2023/09/08 07:20:23;;;;;;;11.75;8.55;;;21.60;65.10;;;;;;5089177;28;20101;-70
2023/09/08 07:22:49;;;;;;;8.02;7.22;;;21.70;64.80;;;;;;5090664;28;20487;-70
2023/09/08 07:25:14;;;;;;;10.07;8.38;;;21.70;64.80;;;;;;5089828;28;20036;-70
2023/09/08 07:27:40;;;;;;;9.25;8.13;;;21.80;65.40;;;;;;5089434;28;20040;-70
2023/09/08 07:30:06;;;;;;;9.68;8.30;;;21.80;65.10;;;;;;5089468;27;20478;-70
2023/09/08 07:32:32;;;;;;;12.48;8.63;;;21.80;65.00;;;;;;5089293;28;20395;-69
2023/09/08 07:34:58;;;;;;;9.18;8.27;;;21.90;65.00;;;;;;5088823;28;20055;-70
2023/09/08 07:37:24;;;;;;;8.98;8.13;;;21.90;64.80;;;;;;5088657;28;20082;-70
2023/09/08 07:39:51;;;;;;;8.95;8.00;;;21.90;64.80;;;;;;5103508;28;20442;-70
2023/09/08 07:42:17;;;;;;;8.95;8.15;;;22.00;65.00;;;;;;5094539;28;20097;-70
2023/09/08 07:44:43;;;;;;;8.48;7.68;;;22.00;64.90;;;;;;5113832;28;20035;-70
2023/09/08 07:47:08;;;;;;;9.52;8.15;;;22.00;64.60;;;;;;5113778;28;20441;-70
2023/09/08 07:49:34;;;;;;;8.80;7.63;;;22.10;64.60;;;;;;5095525;28;20067;-70
2023/09/08 07:52:01;;;;;;;11.88;8.80;;;22.20;65.00;;;;;;5094162;28;20078;-70
2023/09/08 07:54:26;;;;;;;8.25;7.47;;;22.30;64.70;;;;;;5077314;28;20046;-70
2023/09/08 07:56:52;;;;;;;9.32;7.75;;;22.40;64.40;;;;;;5094150;28;20123;-70
2023/09/08 07:59:18;;;;;;;9.45;7.95;;;22.50;63.70;;;;;;5077599;28;20039;-70
2023/09/08 08:01:43;;;;;;;9.45;7.63;;;22.70;63.80;;;;;;5093355;28;20526;-70
2023/09/08 08:04:09;;;;;;;8.80;7.30;;;22.80;63.40;;;;;;5096466;28;20040;-70
2023/09/08 08:06:35;;;;;;;10.95;7.00;;;23.00;63.40;;;;;;5094256;28;20080;-70
2023/09/08 08:09:01;;;;;;;9.52;7.85;;;23.10;63.30;;;;;;5077277;28;20040;-70
2023/09/08 08:11:27;;;;;;;10.00;7.60;;;23.40;62.20;;;;;;5093728;28;20048;-70
2023/09/08 08:13:53;;;;;;;8.68;6.38;;;23.60;61.50;;;;;;5093884;28;20067;-70
2023/09/08 08:16:21;;;;;;;8.20;7.05;;;23.80;61.10;;;;;;5093014;28;20093;-70
2023/09/08 08:18:47;;;;;;;9.18;8.13;;;24.00;60.50;;;;;;5093856;28;20040;-70
2023/09/08 08:21:13;;;;;;;11.27;6.88;;;24.20;59.00;;;;;;5093794;28;20078;-70
2023/09/08 08:23:39;;;;;;;10.30;7.07;;;24.40;58.90;;;;;;5093735;28;20125;-70
2023/09/08 08:26:04;;;;;;;7.78;7.07;;;24.60;58.40;;;;;;5093980;28;20047;-70
2023/09/08 08:28:30;;;;;;;9.95;7.38;;;24.80;58.10;;;;;;5092752;28;20161;-70
2023/09/08 08:30:56;;;;;;;7.05;6.35;;;25.00;57.50;;;;;;5091524;28;20059;-70
2023/09/08 08:33:22;;;;;;;8.07;6.45;;;25.20;57.20;;;;;;5076453;28;20506;-70
2023/09/08 08:35:53;;;;;;;18.40;8.13;;;25.40;56.80;;;;;;5093646;28;20048;-70
2023/09/08 08:38:19;;;;;;;8.45;7.50;;;25.70;55.90;;;;;;5093572;28;20105;-70
2023/09/08 08:40:45;;;;;;;9.32;7.18;;;25.80;55.80;;;;;;5093617;28;20123;-70
2023/09/08 08:43:11;;;;;;;9.25;7.13;;;26.00;55.80;;;;;;5092468;28;20127;-70
2023/09/08 08:45:39;;;;;;;9.90;7.18;;;26.20;55.40;;;;;;5093307;28;20040;-70
2023/09/08 08:48:07;;;;;;;7.43;5.82;;;26.40;55.00;;;;;;5093106;28;20083;-70
2023/09/08 08:50:34;;;;;;;11.93;8.00;;;26.60;55.60;;;;;;5093367;28;20036;-70
2023/09/08 08:53:01;;;;;;;9.15;7.75;;;26.90;54.40;;;;;;5093252;28;20102;-70
2023/09/08 08:55:30;;;;;;;9.10;7.68;;;27.00;53.20;;;;;;5096621;28;20044;-70
2023/09/08 08:58:02;;;;;;;9.10;7.93;;;27.00;53.00;;;;;;5072947;28;20097;-70
2023/09/08 09:00:28;;;;;;;8.53;6.33;;;27.10;52.60;;;;;;5088270;28;20044;-70
2023/09/08 09:02:55;;;;;;;8.65;7.15;;;27.20;52.60;;;;;;5110952;28;20752;-70
2023/09/08 09:05:21;;;;;;;8.85;6.53;;;27.30;52.00;;;;;;5096394;28;20039;-70
2023/09/08 09:07:49;;;;;;;6.32;5.72;;;27.40;52.20;;;;;;5113153;28;20050;-70
2023/09/08 09:10:15;;;;;;;7.70;6.28;;;27.50;52.80;;;;;;5094354;28;20048;-70
2023/09/08 09:12:41;;;;;;;9.43;7.03;;;27.70;52.00;;;;;;5097082;28;20123;-70
2023/09/08 09:15:11;;;;;;;7.60;5.90;;;27.80;51.50;;;;;;5106534;28;20126;-70
2023/09/08 09:17:37;;;;;;;9.80;6.75;;;27.90;51.90;;;;;;5112935;28;20043;-70
2023/09/08 09:20:14;;;;;;;7.22;6.18;;;28.00;51.70;;;;;;5112727;28;20471;-71
2023/09/08 09:22:40;;;;;;;9.55;6.60;;;28.10;51.50;;;;;;5110186;28;20050;-70
2023/09/08 09:25:07;;;;;;;7.45;5.50;;;28.20;50.20;;;;;;5092756;28;20035;-70
2023/09/08 09:27:37;;;;;;;6.60;5.90;;;28.20;50.60;;;;;;5092383;28;20496;-70
2023/09/08 09:30:03;;;;;;;8.68;7.30;;;28.20;51.10;;;;;;5092628;28;20048;-70
2023/09/08 09:32:30;;;;;;;7.18;6.50;;;28.40;50.50;;;;;;5092701;28;20085;-70
2023/09/08 09:35:00;;;;;;;8.02;6.90;;;28.40;50.00;;;;;;5091915;28;20044;-70
2023/09/08 09:37:26;;;;;;;9.00;5.90;;;28.40;49.40;;;;;;5087648;28;20040;-70
2023/09/08 09:39:55;;;;;;;7.88;6.20;;;28.40;49.90;;;;;;5092687;28;20077;-70
2023/09/08 09:42:22;;;;;;;6.07;5.47;;;28.40;50.80;;;;;;5091866;28;20066;-70
2023/09/08 09:44:49;;;;;;;8.73;6.00;;;28.40;50.30;;;;;;5091744;28;20043;-70
2023/09/08 09:47:15;;;;;;;7.30;6.50;;;28.50;50.20;;;;;;5089375;28;20086;-71
2023/09/08 09:49:43;;;;;;;7.47;6.43;;;28.60;49.70;;;;;;5092052;28;20157;-71
2023/09/08 09:52:11;;;;;;;6.93;6.22;;;28.60;50.10;;;;;;5088378;28;20036;-71
2023/09/08 09:54:36;;;;;;;12.65;6.65;;;28.60;50.40;;;;;;5091685;28;20032;-71
2023/09/08 09:57:03;;;;;;;10.27;6.20;;;28.80;50.00;;;;;;5091511;28;20040;-71
2023/09/08 09:59:29;;;;;;;6.65;5.63;;;28.80;50.20;;;;;;5092599;28;20043;-71
2023/09/08 10:01:55;;;;;;;8.05;5.85;;;28.90;49.90;;;;;;5093114;28;20070;-71
2023/09/08 10:04:22;;;;;;;6.47;5.72;;;29.00;49.40;;;;;;5073847;28;20035;-71
2023/09/08 10:06:48;;;;;;;8.90;6.43;;;29.00;49.60;;;;;;5091092;28;20066;-71
2023/09/08 10:09:19;;;;;;;10.55;6.65;;;29.10;48.60;;;;;;5074645;28;20161;-71
2023/09/08 10:11:49;;;;;;;7.18;5.38;;;29.10;48.50;;;;;;5090385;28;20099;-71
2023/09/08 10:14:17;;;;;;;7.68;6.18;;;29.10;49.00;;;;;;5092286;28;20117;-69
2023/09/08 10:16:45;;;;;;;6.90;6.18;;;29.20;48.70;;;;;;5090835;28;20055;-69
2023/09/08 10:19:11;;;;;;;7.28;5.95;;;29.20;47.60;;;;;;5091159;28;20035;-69
2023/09/08 10:21:44;;;;;;;5.90;5.25;;;29.20;47.60;;;;;;5091075;28;20122;-69
2023/09/08 10:24:15;;;;;;;6.57;5.45;;;29.20;47.80;;;;;;5091801;28;20159;-71
2023/09/08 10:26:46;;;;;;;7.63;6.20;;;29.30;48.20;;;;;;5091659;28;20052;-71
2023/09/08 10:29:13;;;;;;;7.53;5.70;;;29.30;47.70;;;;;;5076241;28;20044;-71
2023/09/08 10:31:39;;;;;;;6.07;5.47;;;29.40;47.10;;;;;;5075332;28;20037;-71
2023/09/08 10:34:06;;;;;;;6.72;5.80;;;29.40;47.50;;;;;;5074954;28;20043;-71
2023/09/08 10:36:34;;;;;;;8.20;5.35;;;29.50;47.00;;;;;;5076349;28;20044;-71
2023/09/08 10:39:38;;;;;;;9.32;5.82;;;29.60;47.20;;;;;;5079523;28;20047;-71
2023/09/08 10:42:16;;;;;;;7.38;5.90;;;29.60;47.20;;;;;;5001039;28;20084;-71
2023/09/08 10:45:13;;;;;;;5.60;4.68;;;29.70;47.70;;;;;;5070810;28;20055;-71
2023/09/08 10:47:56;;;;;;;6.50;5.68;;;29.70;48.10;;;;;;5078557;28;20047;-71
2023/09/08 10:50:40;;;;;;;6.05;4.72;;;29.80;47.60;;;;;;5094692;28;20487;-71
2023/09/08 10:53:16;;;;;;;7.03;5.82;;;30.00;47.50;;;;;;5078116;28;20146;-71
2023/09/08 10:55:53;;;;;;;7.90;6.18;;;30.00;46.40;;;;;;5079840;28;20119;-71
2023/09/08 10:58:38;;;;;;;5.90;5.00;;;30.00;46.40;;;;;;5075702;28;20140;-71
2023/09/08 11:01:04;;;;;;;8.60;5.88;;;30.00;46.50;;;;;;5079969;28;20122;-71
2023/09/08 11:03:39;;;;;;;6.75;5.05;;;30.00;46.30;;;;;;5078988;28;20048;-71
2023/09/08 11:06:05;;;;;;;5.57;5.07;;;30.10;47.10;;;;;;5077958;28;20047;-71
2023/09/08 11:08:34;;;;;;;6.18;5.05;;;30.10;47.20;;;;;;5078139;28;20112;-71
2023/09/08 11:11:00;;;;;;;7.72;5.43;;;30.20;46.70;;;;;;5078314;28;20385;-71
2023/09/08 11:13:28;;;;;;;6.20;4.68;;;30.30;46.40;;;;;;5078034;28;20066;-71
2023/09/08 11:15:54;;;;;;;6.30;5.18;;;30.30;46.20;;;;;;5076223;28;20033;-71
2023/09/08 11:18:30;;;;;;;7.45;5.22;;;30.40;45.70;;;;;;5078162;28;21637;-71
2023/09/08 11:20:57;;;;;;;8.38;4.90;;;30.40;45.70;;;;;;5083111;28;20491;-71
2023/09/08 11:23:24;;;;;;;6.50;5.03;;;30.40;45.70;;;;;;5081510;28;20044;-71
2023/09/08 11:25:51;;;;;;;9.18;5.28;;;30.40;46.00;;;;;;5082005;28;20067;-71
2023/09/08 11:28:28;;;;;;;6.65;4.45;;;30.50;45.60;;;;;;5082575;28;20050;-71
2023/09/08 11:30:55;;;;;;;7.20;5.28;;;30.60;46.20;;;;;;5081413;28;20044;-71
2023/09/08 11:33:25;;;;;;;8.45;5.30;;;30.60;45.90;;;;;;5082431;28;20048;-71
2023/09/08 11:35:54;;;;;;;6.10;4.72;;;30.70;45.60;;;;;;5080360;28;20617;-71
2023/09/08 11:38:27;;;;;;;6.20;5.18;;;30.80;45.40;;;;;;5084211;28;20044;-71
2023/09/08 11:40:55;;;;;;;7.55;4.82;;;30.90;45.90;;;;;;5081595;28;20098;-71
2023/09/08 11:43:21;;;;;;;6.38;4.72;;;30.90;45.60;;;;;;5082562;28;20052;-71
2023/09/08 11:45:47;;;;;;;6.38;4.72;;;31.00;45.50;;;;;;5081408;28;20056;-71
2023/09/08 11:48:15;;;;;;;7.75;5.18;;;31.00;45.20;;;;;;5082752;28;20040;-71
2023/09/08 11:50:44;;;;;;;6.32;5.00;;;31.00;45.60;;;;;;5064818;28;20383;-71
2023/09/08 11:53:10;;;;;;;5.60;4.80;;;31.00;45.90;;;;;;5081456;28;20047;-71
2023/09/08 11:55:39;;;;;;;6.15;4.55;;;31.10;45.90;;;;;;5082925;28;20353;-71
2023/09/08 11:58:05;;;;;;;6.30;5.07;;;31.10;44.60;;;;;;5083131;28;20040;-71
2023/09/08 12:00:32;;;;;;;5.10;4.60;;;31.20;44.80;;;;;;5081497;28;20085;-71
2023/09/08 12:03:10;;;;;;;5.68;5.10;;;31.20;44.50;;;;;;5081847;28;20073;-71
2023/09/08 12:05:36;;;;;;;8.82;4.82;;;31.20;44.80;;;;;;5081259;28;20052;-71
2023/09/08 12:08:07;;;;;;;5.35;4.28;;;31.20;44.60;;;;;;5079333;28;20047;-71
2023/09/08 12:10:40;;;;;;;5.90;4.47;;;31.20;45.20;;;;;;5081651;28;20048;-71
2023/09/08 12:13:06;;;;;;;;;;;31.30;45.40;;;;;;5081678;28;20036;-71
2023/09/08 12:15:34;;;;;;;4.47;4.03;;;31.40;45.80;;;;;;5081901;28;19923;-70
2023/09/08 12:18:08;;;;;;;6.75;4.45;;;31.40;44.80;;;;;;5079336;28;20613;-71
2023/09/08 12:20:35;;;;;;;8.25;4.20;;;31.40;44.60;;;;;;5080919;28;20052;-69
2023/09/08 12:23:19;;;;;;;5.60;4.43;;;31.40;44.10;;;;;;5079869;28;20127;-69
2023/09/08 12:25:46;;;;;;;4.70;3.83;;;31.40;42.70;;;;;;5079695;28;20047;-69
2023/09/08 12:28:12;;;;;;;6.38;4.47;;;31.40;43.50;;;;;;5081125;28;20097;-69
2023/09/08 12:30:39;;;;;;;5.32;4.43;;;31.40;43.70;;;;;;5079277;28;20044;-71
2023/09/08 12:33:05;;;;;;;5.63;4.50;;;31.50;44.40;;;;;;5081798;28;20071;-71
2023/09/08 12:35:31;;;;;;;7.00;4.70;;;31.50;43.10;;;;;;5080255;28;20518;-71
2023/09/08 12:38:05;;;;;;;5.63;4.47;;;31.50;43.10;;;;;;5079050;28;20036;-71
2023/09/08 12:40:34;;;;;;;7.05;4.47;;;31.60;43.50;;;;;;5078792;28;20075;-71
2023/09/08 12:43:00;;;;;;;5.70;4.35;;;31.60;43.70;;;;;;5080466;28;20033;-71